This is the latest recevied weather packets stored in our database for station/object KG4LKY-5. If no packets are shown the sender has not sent any weather packets the latest 10 day(s).
| Time | Temp. | Humidity | Pressure | Rain* | Wind** | Luminosity | Snow |
|---|---|---|---|---|---|---|---|
| 1777957902 | 17.22° C | 57% | 1012.3 hPa | 0 mm | - | - | - |
| 1777957602 | 17.22° C | 59% | 1012.2 hPa | 0 mm | - | - | - |
| 1777957302 | 17.22° C | 57% | 1012.1 hPa | 0 mm | - | - | - |
| 1777957001 | 17.78° C | 57% | 1012.1 hPa | 0 mm | - | - | - |
| 1777956701 | 18.33° C | 56% | 1012.1 hPa | 0 mm | - | - | - |
| 1777956401 | 17.22° C | 58% | 1012.1 hPa | 0 mm | - | - | - |
| 1777956100 | 17.78° C | 57% | 1012 hPa | 0 mm | - | - | - |
| 1777955199 | 17.78° C | 59% | 1011.8 hPa | 0 mm | - | - | - |
| 1777954899 | 18.33° C | 55% | 1011.9 hPa | 0 mm | - | - | - |
| 1777954599 | 17.78° C | 56% | 1011.8 hPa | 0 mm | - | - | - |
| 1777954299 | 17.78° C | 56% | 1011.8 hPa | 0 mm | - | - | - |
| 1777953998 | 17.78° C | 58% | 1011.7 hPa | 0 mm | - | - | - |
| 1777953698 | 17.22° C | 59% | 1011.8 hPa | 0 mm | - | - | - |
| 1777953398 | 17.78° C | 58% | 1011.6 hPa | 0 mm | - | - | - |
| 1777953097 | 17.78° C | 59% | 1011.6 hPa | 1.78 mm | - | - | - |
| 1777952797 | 17.78° C | 57% | 1011.6 hPa | 1.78 mm | - | - | - |
| 1777952497 | 17.78° C | 57% | 1011.5 hPa | 1.78 mm | - | - | - |
| 1777952197 | 17.78° C | 58% | 1011.4 hPa | 1.78 mm | - | - | - |
| 1777951896 | 18.33° C | 57% | 1011.2 hPa | 1.78 mm | - | - | - |
| 1777951596 | 18.33° C | 56% | 1011.1 hPa | 1.78 mm | - | - | - |
| 1777951296 | 18.33° C | 54% | 1011.1 hPa | 1.78 mm | - | - | - |
| 1777950995 | 17.78° C | 56% | 1011.1 hPa | 1.78 mm | - | - | - |
| 1777950695 | 18.33° C | 56% | 1011.2 hPa | 1.78 mm | - | - | - |
| 1777950395 | 18.89° C | 53% | 1011.2 hPa | 1.78 mm | - | - | - |
| 1777950094 | 18.89° C | 55% | 1011.3 hPa | 1.78 mm | - | - | - |
* Rain since midnight (hover to see other rain measurements)
** Current wind speed in m/s (hover to see current wind gust speed)